Strawn, Illinois
Current Conditions -  °F | °C
As of 3:55 PM on Monday 22 Dec 2014 (Local Time) from KPNT Reporting Station
Light Rain Light Rain  
Wind Chill: 32°   Ceiling: 500
Heat Index: 41°   Visibility: 2.5mi
Dew Point: 40°   Wind: 16mph
Humidity: 99%   Direction: 120°ESE
Pressure: 29.64"   Gusts: NA
Location:  40.65°N, 88.4°W
Report Text: KPNT 222155Z AUTO 12014KT 2 1/2SM -RA OVC005 05/05 A2964 RMK AO2 P0002 T00480046
Loading
Personal Weather Stations






























Interactive Weather Map New forecast layout! Learn more

10-Day Weather Forecast

Advertisements
Track Severe Weather on mobile